sensor_id;sensor_type;location;lat;lon;timestamp;temperature;humidity
56137;DHT22;42008;52.934;5.884;2022-09-09T00:01:58;13.70;99.90
56137;DHT22;42008;52.934;5.884;2022-09-09T00:04:36;14.90;99.90
56137;DHT22;42008;52.934;5.884;2022-09-09T00:07:20;14.80;99.90
56137;DHT22;42008;52.934;5.884;2022-09-09T00:10:12;14.10;99.90
56137;DHT22;42008;52.934;5.884;2022-09-09T00:15:27;14.70;99.90
56137;DHT22;42008;52.934;5.884;2022-09-09T00:20:49;14.50;99.90
56137;DHT22;42008;52.934;5.884;2022-09-09T00:23:25;13.90;99.90
56137;DHT22;42008;52.934;5.884;2022-09-09T00:28:55;14.80;99.90
56137;DHT22;42008;52.934;5.884;2022-09-09T00:31:29;13.80;99.90
56137;DHT22;42008;52.934;5.884;2022-09-09T00:34:00;14.00;99.90
56137;DHT22;42008;52.934;5.884;2022-09-09T00:36:29;14.00;99.90
56137;DHT22;42008;52.934;5.884;2022-09-09T00:39:00;14.00;99.90
56137;DHT22;42008;52.934;5.884;2022-09-09T00:41:59;13.50;99.90
56137;DHT22;42008;52.934;5.884;2022-09-09T00:47:45;14.00;99.90
56137;DHT22;42008;52.934;5.884;2022-09-09T00:55:53;13.90;99.90
56137;DHT22;42008;52.934;5.884;2022-09-09T00:58:19;14.30;99.90
56137;DHT22;42008;52.934;5.884;2022-09-09T01:00:57;14.80;99.90
56137;DHT22;42008;52.934;5.884;2022-09-09T01:03:35;15.20;99.90
56137;DHT22;42008;52.934;5.884;2022-09-09T01:11:26;15.00;99.90
56137;DHT22;42008;52.934;5.884;2022-09-09T01:14:13;13.70;99.90
56137;DHT22;42008;52.934;5.884;2022-09-09T01:16:43;15.10;99.90
56137;DHT22;42008;52.934;5.884;2022-09-09T01:19:11;13.90;99.90
56137;DHT22;42008;52.934;5.884;2022-09-09T01:21:50;14.80;99.90
56137;DHT22;42008;52.934;5.884;2022-09-09T01:27:01;14.50;99.90
56137;DHT22;42008;52.934;5.884;2022-09-09T01:29:28;14.90;99.90
56137;DHT22;42008;52.934;5.884;2022-09-09T01:31:57;16.10;99.90
56137;DHT22;42008;52.934;5.884;2022-09-09T01:34:25;13.80;99.90
56137;DHT22;42008;52.934;5.884;2022-09-09T01:37:06;13.90;99.90
56137;DHT22;42008;52.934;5.884;2022-09-09T01:39:33;14.30;99.90
56137;DHT22;42008;52.934;5.884;2022-09-09T01:42:00;14.90;99.90
56137;DHT22;42008;52.934;5.884;2022-09-09T01:44:27;14.00;99.90
56137;DHT22;42008;52.934;5.884;2022-09-09T01:46:53;14.70;99.90
56137;DHT22;42008;52.934;5.884;2022-09-09T01:49:19;15.20;99.90
56137;DHT22;42008;52.934;5.884;2022-09-09T01:51:48;13.60;99.90
56137;DHT22;42008;52.934;5.884;2022-09-09T01:54:14;14.90;99.90
56137;DHT22;42008;52.934;5.884;2022-09-09T01:56:43;15.20;99.90
56137;DHT22;42008;52.934;5.884;2022-09-09T02:02:36;14.90;99.90
56137;DHT22;42008;52.934;5.884;2022-09-09T02:05:12;15.40;99.90
56137;DHT22;42008;52.934;5.884;2022-09-09T02:07:47;14.70;99.90
56137;DHT22;42008;52.934;5.884;2022-09-09T02:10:39;15.10;99.90
56137;DHT22;42008;52.934;5.884;2022-09-09T02:13:11;14.70;99.90
56137;DHT22;42008;52.934;5.884;2022-09-09T02:18:10;14.50;99.90
56137;DHT22;42008;52.934;5.884;2022-09-09T02:20:38;15.30;99.90
56137;DHT22;42008;52.934;5.884;2022-09-09T02:23:05;15.30;99.90
56137;DHT22;42008;52.934;5.884;2022-09-09T02:25:33;15.00;99.90
56137;DHT22;42008;52.934;5.884;2022-09-09T02:28:03;14.00;99.90
56137;DHT22;42008;52.934;5.884;2022-09-09T02:30:32;15.20;99.90
56137;DHT22;42008;52.934;5.884;2022-09-09T02:33:02;15.20;99.90
56137;DHT22;42008;52.934;5.884;2022-09-09T02:35:30;14.10;99.90
56137;DHT22;42008;52.934;5.884;2022-09-09T02:38:01;15.20;99.90
56137;DHT22;42008;52.934;5.884;2022-09-09T02:40:27;15.20;99.90
56137;DHT22;42008;52.934;5.884;2022-09-09T02:42:54;14.90;99.90
56137;DHT22;42008;52.934;5.884;2022-09-09T02:45:26;14.80;99.90
56137;DHT22;42008;52.934;5.884;2022-09-09T02:47:57;15.20;99.90
56137;DHT22;42008;52.934;5.884;2022-09-09T02:50:54;15.00;99.90
56137;DHT22;42008;52.934;5.884;2022-09-09T02:53:28;14.60;99.90
56137;DHT22;42008;52.934;5.884;2022-09-09T02:56:04;15.50;99.90
56137;DHT22;42008;52.934;5.884;2022-09-09T02:58:32;13.60;99.90
56137;DHT22;42008;52.934;5.884;2022-09-09T03:00:59;14.90;99.90
56137;DHT22;42008;52.934;5.884;2022-09-09T03:03:26;15.50;99.90
56137;DHT22;42008;52.934;5.884;2022-09-09T03:05:52;13.90;99.90
56137;DHT22;42008;52.934;5.884;2022-09-09T03:08:18;15.20;99.90
56137;DHT22;42008;52.934;5.884;2022-09-09T03:10:43;14.80;99.90
56137;DHT22;42008;52.934;5.884;2022-09-09T03:13:09;14.90;99.90
56137;DHT22;42008;52.934;5.884;2022-09-09T03:15:35;14.70;99.90
56137;DHT22;42008;52.934;5.884;2022-09-09T03:18:01;15.00;99.90
56137;DHT22;42008;52.934;5.884;2022-09-09T03:20:29;15.30;99.90
56137;DHT22;42008;52.934;5.884;2022-09-09T03:22:55;15.10;99.90
56137;DHT22;42008;52.934;5.884;2022-09-09T03:25:22;15.30;99.90
56137;DHT22;42008;52.934;5.884;2022-09-09T03:27:52;14.30;99.90
56137;DHT22;42008;52.934;5.884;2022-09-09T03:30:21;15.50;99.90
56137;DHT22;42008;52.934;5.884;2022-09-09T03:32:46;14.80;99.90
56137;DHT22;42008;52.934;5.884;2022-09-09T03:35:12;14.90;99.90
56137;DHT22;42008;52.934;5.884;2022-09-09T03:37:37;14.50;99.90
56137;DHT22;42008;52.934;5.884;2022-09-09T03:40:04;13.70;99.90
56137;DHT22;42008;52.934;5.884;2022-09-09T03:42:30;14.70;99.90
56137;DHT22;42008;52.934;5.884;2022-09-09T03:44:56;14.50;99.90
56137;DHT22;42008;52.934;5.884;2022-09-09T03:47:23;13.90;99.90
56137;DHT22;42008;52.934;5.884;2022-09-09T03:49:48;15.10;99.90
56137;DHT22;42008;52.934;5.884;2022-09-09T03:52:15;15.10;99.90
56137;DHT22;42008;52.934;5.884;2022-09-09T03:54:41;13.60;99.90
56137;DHT22;42008;52.934;5.884;2022-09-09T03:57:10;13.70;99.90
56137;DHT22;42008;52.934;5.884;2022-09-09T03:59:36;14.70;99.90
56137;DHT22;42008;52.934;5.884;2022-09-09T04:02:02;15.40;99.90
56137;DHT22;42008;52.934;5.884;2022-09-09T04:04:28;14.70;99.90
56137;DHT22;42008;52.934;5.884;2022-09-09T04:06:54;15.30;99.90
56137;DHT22;42008;52.934;5.884;2022-09-09T04:09:20;13.90;99.90
56137;DHT22;42008;52.934;5.884;2022-09-09T04:11:45;13.80;99.90
56137;DHT22;42008;52.934;5.884;2022-09-09T04:14:12;15.40;99.90
56137;DHT22;42008;52.934;5.884;2022-09-09T04:16:38;15.60;99.90
56137;DHT22;42008;52.934;5.884;2022-09-09T04:19:04;15.10;99.90
56137;DHT22;42008;52.934;5.884;2022-09-09T04:21:32;15.20;99.90
56137;DHT22;42008;52.934;5.884;2022-09-09T04:23:57;14.70;99.90
56137;DHT22;42008;52.934;5.884;2022-09-09T04:26:23;14.70;99.90
56137;DHT22;42008;52.934;5.884;2022-09-09T04:28:49;15.40;99.90
56137;DHT22;42008;52.934;5.884;2022-09-09T04:31:18;14.80;99.90
56137;DHT22;42008;52.934;5.884;2022-09-09T04:33:45;13.90;99.90
56137;DHT22;42008;52.934;5.884;2022-09-09T04:36:12;14.80;99.90
56137;DHT22;42008;52.934;5.884;2022-09-09T04:38:38;14.70;99.90
56137;DHT22;42008;52.934;5.884;2022-09-09T04:41:04;15.30;99.90
56137;DHT22;42008;52.934;5.884;2022-09-09T04:43:29;15.00;99.90
56137;DHT22;42008;52.934;5.884;2022-09-09T04:45:56;13.50;99.90
56137;DHT22;42008;52.934;5.884;2022-09-09T04:48:21;14.90;99.90
56137;DHT22;42008;52.934;5.884;2022-09-09T04:50:57;14.20;99.90
56137;DHT22;42008;52.934;5.884;2022-09-09T04:53:23;13.70;99.90
56137;DHT22;42008;52.934;5.884;2022-09-09T04:55:49;14.60;99.90
56137;DHT22;42008;52.934;5.884;2022-09-09T04:58:15;14.70;99.90
56137;DHT22;42008;52.934;5.884;2022-09-09T05:00:40;14.90;99.90
56137;DHT22;42008;52.934;5.884;2022-09-09T05:03:07;13.90;99.90
56137;DHT22;42008;52.934;5.884;2022-09-09T05:05:34;15.10;99.90
56137;DHT22;42008;52.934;5.884;2022-09-09T05:08:07;13.80;99.90
56137;DHT22;42008;52.934;5.884;2022-09-09T05:10:39;13.60;99.90
56137;DHT22;42008;52.934;5.884;2022-09-09T05:13:07;14.30;99.90
56137;DHT22;42008;52.934;5.884;2022-09-09T05:15:32;15.30;99.90
56137;DHT22;42008;52.934;5.884;2022-09-09T05:17:59;14.20;99.90
56137;DHT22;42008;52.934;5.884;2022-09-09T05:20:26;13.50;99.90
56137;DHT22;42008;52.934;5.884;2022-09-09T05:22:54;15.40;99.90
56137;DHT22;42008;52.934;5.884;2022-09-09T05:25:20;14.80;99.90
56137;DHT22;42008;52.934;5.884;2022-09-09T05:27:47;15.00;99.90
56137;DHT22;42008;52.934;5.884;2022-09-09T05:30:13;15.20;99.90
56137;DHT22;42008;52.934;5.884;2022-09-09T05:32:38;13.90;99.90
56137;DHT22;42008;52.934;5.884;2022-09-09T05:35:04;13.90;99.90
56137;DHT22;42008;52.934;5.884;2022-09-09T05:37:31;14.60;99.90
56137;DHT22;42008;52.934;5.884;2022-09-09T05:39:56;13.80;99.90
56137;DHT22;42008;52.934;5.884;2022-09-09T05:42:23;13.60;99.90
56137;DHT22;42008;52.934;5.884;2022-09-09T05:44:48;13.80;99.90
56137;DHT22;42008;52.934;5.884;2022-09-09T05:47:16;15.30;99.90
56137;DHT22;42008;52.934;5.884;2022-09-09T05:49:42;13.90;99.90
56137;DHT22;42008;52.934;5.884;2022-09-09T05:52:08;15.10;99.90
56137;DHT22;42008;52.934;5.884;2022-09-09T05:54:35;15.00;99.90
56137;DHT22;42008;52.934;5.884;2022-09-09T05:57:00;15.00;99.90
56137;DHT22;42008;52.934;5.884;2022-09-09T05:59:26;15.10;99.90
56137;DHT22;42008;52.934;5.884;2022-09-09T06:01:52;14.00;99.90
56137;DHT22;42008;52.934;5.884;2022-09-09T06:04:18;13.90;99.90
56137;DHT22;42008;52.934;5.884;2022-09-09T06:06:46;15.00;99.90
56137;DHT22;42008;52.934;5.884;2022-09-09T06:09:11;13.60;99.90
56137;DHT22;42008;52.934;5.884;2022-09-09T06:11:38;15.60;99.90
56137;DHT22;42008;52.934;5.884;2022-09-09T06:14:05;15.40;99.90
56137;DHT22;42008;52.934;5.884;2022-09-09T06:16:31;15.40;99.90
56137;DHT22;42008;52.934;5.884;2022-09-09T06:19:01;15.00;99.90
56137;DHT22;42008;52.934;5.884;2022-09-09T06:21:36;15.30;99.90
56137;DHT22;42008;52.934;5.884;2022-09-09T06:24:05;15.40;99.90
56137;DHT22;42008;52.934;5.884;2022-09-09T06:26:34;14.80;99.90
56137;DHT22;42008;52.934;5.884;2022-09-09T06:29:01;14.90;99.90
56137;DHT22;42008;52.934;5.884;2022-09-09T06:31:29;15.00;99.90
56137;DHT22;42008;52.934;5.884;2022-09-09T06:33:56;15.60;99.90
56137;DHT22;42008;52.934;5.884;2022-09-09T06:36:24;15.30;99.90
56137;DHT22;42008;52.934;5.884;2022-09-09T06:38:50;14.30;99.90
56137;DHT22;42008;52.934;5.884;2022-09-09T06:41:17;14.70;99.90
56137;DHT22;42008;52.934;5.884;2022-09-09T06:43:44;15.40;99.90
56137;DHT22;42008;52.934;5.884;2022-09-09T06:46:18;15.00;99.90
56137;DHT22;42008;52.934;5.884;2022-09-09T06:48:44;14.10;99.90
56137;DHT22;42008;52.934;5.884;2022-09-09T06:53:40;16.60;99.90
56137;DHT22;42008;52.934;5.884;2022-09-09T06:58:51;14.30;99.90
56137;DHT22;42008;52.934;5.884;2022-09-09T07:01:19;15.70;99.90
56137;DHT22;42008;52.934;5.884;2022-09-09T07:03:48;15.40;99.90
56137;DHT22;42008;52.934;5.884;2022-09-09T07:06:37;15.90;99.90
56137;DHT22;42008;52.934;5.884;2022-09-09T07:09:08;15.50;99.90
56137;DHT22;42008;52.934;5.884;2022-09-09T07:11:40;15.00;99.90
56137;DHT22;42008;52.934;5.884;2022-09-09T07:14:07;15.50;99.90
56137;DHT22;42008;52.934;5.884;2022-09-09T07:16:33;15.40;99.90
56137;DHT22;42008;52.934;5.884;2022-09-09T07:19:02;15.40;99.90
56137;DHT22;42008;52.934;5.884;2022-09-09T07:21:29;15.80;99.90
56137;DHT22;42008;52.934;5.884;2022-09-09T07:23:55;15.30;99.90
56137;DHT22;42008;52.934;5.884;2022-09-09T07:26:24;15.50;99.90
56137;DHT22;42008;52.934;5.884;2022-09-09T07:28:51;15.70;99.90
56137;DHT22;42008;52.934;5.884;2022-09-09T07:31:20;15.30;99.90
56137;DHT22;42008;52.934;5.884;2022-09-09T07:33:47;15.10;99.90
56137;DHT22;42008;52.934;5.884;2022-09-09T07:36:25;16.10;99.90
56137;DHT22;42008;52.934;5.884;2022-09-09T07:38:56;16.20;99.90
56137;DHT22;42008;52.934;5.884;2022-09-09T07:41:40;15.90;99.90
56137;DHT22;42008;52.934;5.884;2022-09-09T07:44:08;16.60;99.90
56137;DHT22;42008;52.934;5.884;2022-09-09T07:46:36;17.80;99.90
56137;DHT22;42008;52.934;5.884;2022-09-09T07:49:04;16.20;99.90
56137;DHT22;42008;52.934;5.884;2022-09-09T07:51:32;17.60;99.90
56137;DHT22;42008;52.934;5.884;2022-09-09T07:54:04;16.30;99.90
56137;DHT22;42008;52.934;5.884;2022-09-09T07:56:30;17.00;99.90
56137;DHT22;42008;52.934;5.884;2022-09-09T07:58:57;17.80;99.90
56137;DHT22;42008;52.934;5.884;2022-09-09T08:01:27;16.30;99.90
56137;DHT22;42008;52.934;5.884;2022-09-09T08:06:32;17.00;98.80
56137;DHT22;42008;52.934;5.884;2022-09-09T08:08:58;17.30;99.90
56137;DHT22;42008;52.934;5.884;2022-09-09T08:11:26;17.90;91.70
56137;DHT22;42008;52.934;5.884;2022-09-09T08:13:52;17.50;94.50
56137;DHT22;42008;52.934;5.884;2022-09-09T08:16:24;17.20;99.90
56137;DHT22;42008;52.934;5.884;2022-09-09T08:18:51;16.50;76.90
56137;DHT22;42008;52.934;5.884;2022-09-09T08:21:20;17.40;80.80
56137;DHT22;42008;52.934;5.884;2022-09-09T08:23:47;17.70;93.00
56137;DHT22;42008;52.934;5.884;2022-09-09T08:26:15;17.50;91.20
56137;DHT22;42008;52.934;5.884;2022-09-09T08:28:42;17.80;91.90
56137;DHT22;42008;52.934;5.884;2022-09-09T08:33:33;17.70;88.00
56137;DHT22;42008;52.934;5.884;2022-09-09T08:35:59;17.80;90.40
56137;DHT22;42008;52.934;5.884;2022-09-09T08:38:24;17.40;73.10
56137;DHT22;42008;52.934;5.884;2022-09-09T08:40:52;18.00;69.00
56137;DHT22;42008;52.934;5.884;2022-09-09T08:43:24;17.90;68.10
56137;DHT22;42008;52.934;5.884;2022-09-09T08:48:46;17.80;82.00
56137;DHT22;42008;52.934;5.884;2022-09-09T08:51:13;19.00;53.80
56137;DHT22;42008;52.934;5.884;2022-09-09T08:53:46;19.20;41.70
56137;DHT22;42008;52.934;5.884;2022-09-09T08:56:16;18.70;57.50
56137;DHT22;42008;52.934;5.884;2022-09-09T08:58:52;18.30;26.50
56137;DHT22;42008;52.934;5.884;2022-09-09T09:01:36;17.60;52.70
56137;DHT22;42008;52.934;5.884;2022-09-09T09:12:01;18.70;64.70
56137;DHT22;42008;52.934;5.884;2022-09-09T09:14:34;17.70;42.80
56137;DHT22;42008;52.934;5.884;2022-09-09T09:17:03;18.20;68.90
56137;DHT22;42008;52.934;5.884;2022-09-09T09:19:32;18.00;32.30
56137;DHT22;42008;52.934;5.884;2022-09-09T09:24:54;17.50;27.60
56137;DHT22;42008;52.934;5.884;2022-09-09T09:30:21;19.30;5.00
56137;DHT22;42008;52.934;5.884;2022-09-09T09:33:02;19.30;15.40
56137;DHT22;42008;52.934;5.884;2022-09-09T09:35:30;19.60;19.50
56137;DHT22;42008;52.934;5.884;2022-09-09T09:37:56;18.30;1.00
56137;DHT22;42008;52.934;5.884;2022-09-09T09:40:22;18.60;1.00
56137;DHT22;42008;52.934;5.884;2022-09-09T09:42:53;18.90;1.00
56137;DHT22;42008;52.934;5.884;2022-09-09T09:45:43;17.70;1.00
56137;DHT22;42008;52.934;5.884;2022-09-09T09:48:12;18.00;1.00
56137;DHT22;42008;52.934;5.884;2022-09-09T09:50:57;18.00;1.00
56137;DHT22;42008;52.934;5.884;2022-09-09T09:53:28;17.70;1.00
56137;DHT22;42008;52.934;5.884;2022-09-09T09:55:59;18.20;1.00
56137;DHT22;42008;52.934;5.884;2022-09-09T09:58:26;19.70;1.00
56137;DHT22;42008;52.934;5.884;2022-09-09T10:00:54;18.20;1.00
56137;DHT22;42008;52.934;5.884;2022-09-09T10:03:26;19.70;1.00
56137;DHT22;42008;52.934;5.884;2022-09-09T10:05:52;18.10;1.00
56137;DHT22;42008;52.934;5.884;2022-09-09T10:08:18;19.40;1.00
56137;DHT22;42008;52.934;5.884;2022-09-09T10:17:04;17.70;1.00
56137;DHT22;42008;52.934;5.884;2022-09-09T10:27:11;19.00;1.00
56137;DHT22;42008;52.934;5.884;2022-09-09T10:32:40;17.50;1.00
56137;DHT22;42008;52.934;5.884;2022-09-09T10:35:29;18.90;1.00
56137;DHT22;42008;52.934;5.884;2022-09-09T10:46:11;18.00;1.00
56137;DHT22;42008;52.934;5.884;2022-09-09T10:49:02;18.00;1.00
56137;DHT22;42008;52.934;5.884;2022-09-09T10:51:45;17.40;1.00
56137;DHT22;42008;52.934;5.884;2022-09-09T10:57:00;17.60;1.00
56137;DHT22;42008;52.934;5.884;2022-09-09T10:59:35;18.00;1.00
56137;DHT22;42008;52.934;5.884;2022-09-09T11:02:06;18.00;1.00
56137;DHT22;42008;52.934;5.884;2022-09-09T11:04:47;19.10;1.00
56137;DHT22;42008;52.934;5.884;2022-09-09T11:07:33;17.70;1.00
56137;DHT22;42008;52.934;5.884;2022-09-09T11:10:04;19.60;1.00
56137;DHT22;42008;52.934;5.884;2022-09-09T11:12:35;20.00;1.00
56137;DHT22;42008;52.934;5.884;2022-09-09T11:15:36;20.70;1.00
56137;DHT22;42008;52.934;5.884;2022-09-09T11:17:56;20.00;1.00
56137;DHT22;42008;52.934;5.884;2022-09-09T11:20:25;19.20;1.00
56137;DHT22;42008;52.934;5.884;2022-09-09T11:23:01;21.20;1.00
56137;DHT22;42008;52.934;5.884;2022-09-09T11:25:45;19.60;1.00
56137;DHT22;42008;52.934;5.884;2022-09-09T11:28:37;19.00;1.00
56137;DHT22;42008;52.934;5.884;2022-09-09T11:31:14;19.40;1.00
56137;DHT22;42008;52.934;5.884;2022-09-09T11:36:34;18.00;1.00
56137;DHT22;42008;52.934;5.884;2022-09-09T11:41:48;19.10;1.00
56137;DHT22;42008;52.934;5.884;2022-09-09T11:44:29;18.40;1.00
56137;DHT22;42008;52.934;5.884;2022-09-09T11:46:55;18.00;1.00
56137;DHT22;42008;52.934;5.884;2022-09-09T11:49:41;18.70;1.00
56137;DHT22;42008;52.934;5.884;2022-09-09T11:52:23;19.20;1.00
56137;DHT22;42008;52.934;5.884;2022-09-09T11:54:51;18.60;1.00
56137;DHT22;42008;52.934;5.884;2022-09-09T11:57:26;19.60;1.00
56137;DHT22;42008;52.934;5.884;2022-09-09T11:59:56;19.70;1.00
56137;DHT22;42008;52.934;5.884;2022-09-09T12:02:24;18.60;1.00
56137;DHT22;42008;52.934;5.884;2022-09-09T12:05:07;18.30;1.00
56137;DHT22;42008;52.934;5.884;2022-09-09T12:07:49;17.60;1.00
56137;DHT22;42008;52.934;5.884;2022-09-09T12:12:53;17.40;26.90
56137;DHT22;42008;52.934;5.884;2022-09-09T12:15:25;18.40;29.90
56137;DHT22;42008;52.934;5.884;2022-09-09T12:17:55;18.50;33.00
56137;DHT22;42008;52.934;5.884;2022-09-09T12:20:23;18.80;1.00
56137;DHT22;42008;52.934;5.884;2022-09-09T12:25:35;19.80;1.00
56137;DHT22;42008;52.934;5.884;2022-09-09T12:33:45;19.20;1.00
56137;DHT22;42008;52.934;5.884;2022-09-09T12:36:27;18.40;1.00
56137;DHT22;42008;52.934;5.884;2022-09-09T12:38:56;18.10;19.80
56137;DHT22;42008;52.934;5.884;2022-09-09T12:41:26;18.50;18.60
56137;DHT22;42008;52.934;5.884;2022-09-09T12:44:06;20.00;1.00
56137;DHT22;42008;52.934;5.884;2022-09-09T12:49:02;20.30;1.00
56137;DHT22;42008;52.934;5.884;2022-09-09T12:51:30;20.20;1.00
56137;DHT22;42008;52.934;5.884;2022-09-09T12:53:57;19.10;1.00
56137;DHT22;42008;52.934;5.884;2022-09-09T12:56:30;18.40;1.00
56137;DHT22;42008;52.934;5.884;2022-09-09T12:58:57;18.50;1.00
56137;DHT22;42008;52.934;5.884;2022-09-09T13:01:31;17.90;21.40
56137;DHT22;42008;52.934;5.884;2022-09-09T13:03:58;17.20;81.40
56137;DHT22;42008;52.934;5.884;2022-09-09T13:06:29;18.00;99.40
56137;DHT22;42008;52.934;5.884;2022-09-09T13:08:57;18.00;61.50
56137;DHT22;42008;52.934;5.884;2022-09-09T13:11:35;18.30;40.40
56137;DHT22;42008;52.934;5.884;2022-09-09T13:14:01;18.80;40.20
56137;DHT22;42008;52.934;5.884;2022-09-09T13:16:32;19.90;25.30
56137;DHT22;42008;52.934;5.884;2022-09-09T13:19:13;20.30;15.20
56137;DHT22;42008;52.934;5.884;2022-09-09T13:21:39;19.90;1.00
56137;DHT22;42008;52.934;5.884;2022-09-09T13:26:57;19.90;1.00
56137;DHT22;42008;52.934;5.884;2022-09-09T13:29:23;21.00;1.00
56137;DHT22;42008;52.934;5.884;2022-09-09T13:31:50;22.60;1.00
56137;DHT22;42008;52.934;5.884;2022-09-09T13:34:28;23.60;1.00
56137;DHT22;42008;52.934;5.884;2022-09-09T13:37:00;22.40;1.00
56137;DHT22;42008;52.934;5.884;2022-09-09T13:39:33;23.60;1.00
56137;DHT22;42008;52.934;5.884;2022-09-09T13:42:00;23.00;1.00
56137;DHT22;42008;52.934;5.884;2022-09-09T13:44:38;21.00;1.00
56137;DHT22;42008;52.934;5.884;2022-09-09T13:47:06;21.00;1.00
56137;DHT22;42008;52.934;5.884;2022-09-09T13:49:42;21.90;1.00
56137;DHT22;42008;52.934;5.884;2022-09-09T13:52:13;20.60;1.00
56137;DHT22;42008;52.934;5.884;2022-09-09T13:54:40;20.90;1.00
56137;DHT22;42008;52.934;5.884;2022-09-09T13:57:14;20.70;1.00
56137;DHT22;42008;52.934;5.884;2022-09-09T13:59:40;20.80;1.00
56137;DHT22;42008;52.934;5.884;2022-09-09T14:02:07;21.00;1.00
56137;DHT22;42008;52.934;5.884;2022-09-09T14:04:32;23.40;1.00
56137;DHT22;42008;52.934;5.884;2022-09-09T14:07:01;23.30;1.00
56137;DHT22;42008;52.934;5.884;2022-09-09T14:09:27;21.40;1.00
56137;DHT22;42008;52.934;5.884;2022-09-09T14:11:52;20.70;1.00
56137;DHT22;42008;52.934;5.884;2022-09-09T14:14:18;20.80;1.00
56137;DHT22;42008;52.934;5.884;2022-09-09T14:16:43;18.70;1.00
56137;DHT22;42008;52.934;5.884;2022-09-09T14:19:09;20.00;1.00
56137;DHT22;42008;52.934;5.884;2022-09-09T14:21:35;19.80;1.00
56137;DHT22;42008;52.934;5.884;2022-09-09T14:24:01;18.50;1.00
56137;DHT22;42008;52.934;5.884;2022-09-09T14:26:26;19.00;1.00
56137;DHT22;42008;52.934;5.884;2022-09-09T14:28:54;19.70;1.00
56137;DHT22;42008;52.934;5.884;2022-09-09T14:31:19;18.00;1.00
56137;DHT22;42008;52.934;5.884;2022-09-09T14:33:46;17.80;1.00
56137;DHT22;42008;52.934;5.884;2022-09-09T14:36:12;17.90;35.70
56137;DHT22;42008;52.934;5.884;2022-09-09T14:38:38;17.70;94.30
56137;DHT22;42008;52.934;5.884;2022-09-09T14:41:06;15.70;99.90
56137;DHT22;42008;52.934;5.884;2022-09-09T14:43:32;15.80;99.90
56137;DHT22;42008;52.934;5.884;2022-09-09T14:46:05;17.30;99.90
56137;DHT22;42008;52.934;5.884;2022-09-09T14:48:31;16.90;99.90
56137;DHT22;42008;52.934;5.884;2022-09-09T14:50:57;17.40;99.90
56137;DHT22;42008;52.934;5.884;2022-09-09T14:53:22;17.20;99.90
56137;DHT22;42008;52.934;5.884;2022-09-09T14:55:48;17.40;99.90
56137;DHT22;42008;52.934;5.884;2022-09-09T14:58:14;17.90;99.90
56137;DHT22;42008;52.934;5.884;2022-09-09T15:00:39;17.80;99.90
56137;DHT22;42008;52.934;5.884;2022-09-09T15:03:06;17.80;99.90
56137;DHT22;42008;52.934;5.884;2022-09-09T15:05:32;18.50;99.90
56137;DHT22;42008;52.934;5.884;2022-09-09T15:07:57;18.50;99.90
56137;DHT22;42008;52.934;5.884;2022-09-09T15:10:24;19.50;99.90
56137;DHT22;42008;52.934;5.884;2022-09-09T15:12:49;19.40;90.40
56137;DHT22;42008;52.934;5.884;2022-09-09T15:15:15;18.20;73.80
56137;DHT22;42008;52.934;5.884;2022-09-09T15:17:41;19.10;64.50
56137;DHT22;42008;52.934;5.884;2022-09-09T15:20:07;19.70;49.50
56137;DHT22;42008;52.934;5.884;2022-09-09T15:22:33;19.90;24.20
56137;DHT22;42008;52.934;5.884;2022-09-09T15:24:59;20.20;1.00
56137;DHT22;42008;52.934;5.884;2022-09-09T15:27:24;20.70;1.00
56137;DHT22;42008;52.934;5.884;2022-09-09T15:29:50;20.30;1.00
56137;DHT22;42008;52.934;5.884;2022-09-09T15:32:17;20.50;1.00
56137;DHT22;42008;52.934;5.884;2022-09-09T15:34:43;22.50;1.00
56137;DHT22;42008;52.934;5.884;2022-09-09T15:37:12;21.30;1.00
56137;DHT22;42008;52.934;5.884;2022-09-09T15:39:40;21.60;1.00
56137;DHT22;42008;52.934;5.884;2022-09-09T15:42:06;21.30;1.00
56137;DHT22;42008;52.934;5.884;2022-09-09T15:44:40;20.50;1.00
56137;DHT22;42008;52.934;5.884;2022-09-09T15:47:10;20.60;1.00
56137;DHT22;42008;52.934;5.884;2022-09-09T15:49:37;19.90;1.00
56137;DHT22;42008;52.934;5.884;2022-09-09T15:52:04;20.30;1.00
56137;DHT22;42008;52.934;5.884;2022-09-09T15:54:34;20.30;1.00
56137;DHT22;42008;52.934;5.884;2022-09-09T15:57:03;20.40;1.00
56137;DHT22;42008;52.934;5.884;2022-09-09T15:59:30;19.80;1.00
56137;DHT22;42008;52.934;5.884;2022-09-09T16:01:56;20.00;2.80
56137;DHT22;42008;52.934;5.884;2022-09-09T16:04:24;18.70;3.10
56137;DHT22;42008;52.934;5.884;2022-09-09T16:07:03;20.00;1.00
56137;DHT22;42008;52.934;5.884;2022-09-09T16:09:30;19.80;4.90
56137;DHT22;42008;52.934;5.884;2022-09-09T16:11:58;20.10;6.90
56137;DHT22;42008;52.934;5.884;2022-09-09T16:14:24;20.20;10.50
56137;DHT22;42008;52.934;5.884;2022-09-09T16:16:50;18.40;6.00
56137;DHT22;42008;52.934;5.884;2022-09-09T16:19:16;18.50;11.50
56137;DHT22;42008;52.934;5.884;2022-09-09T16:21:44;19.40;9.50
56137;DHT22;42008;52.934;5.884;2022-09-09T16:24:13;18.20;13.20
56137;DHT22;42008;52.934;5.884;2022-09-09T16:26:44;18.30;19.60
56137;DHT22;42008;52.934;5.884;2022-09-09T16:29:14;18.40;18.30
56137;DHT22;42008;52.934;5.884;2022-09-09T16:31:40;18.10;21.30
56137;DHT22;42008;52.934;5.884;2022-09-09T16:34:06;18.00;24.00
56137;DHT22;42008;52.934;5.884;2022-09-09T16:36:34;18.00;20.60
56137;DHT22;42008;52.934;5.884;2022-09-09T16:39:05;19.70;19.90
56137;DHT22;42008;52.934;5.884;2022-09-09T16:41:32;18.30;18.30
56137;DHT22;42008;52.934;5.884;2022-09-09T16:44:03;18.70;15.70
56137;DHT22;42008;52.934;5.884;2022-09-09T16:46:31;17.90;16.70
56137;DHT22;42008;52.934;5.884;2022-09-09T16:48:58;17.90;16.80
56137;DHT22;42008;52.934;5.884;2022-09-09T16:51:39;18.40;22.20
56137;DHT22;42008;52.934;5.884;2022-09-09T16:54:07;19.20;24.00
56137;DHT22;42008;52.934;5.884;2022-09-09T16:56:34;17.60;28.00
56137;DHT22;42008;52.934;5.884;2022-09-09T16:59:07;19.70;30.70
56137;DHT22;42008;52.934;5.884;2022-09-09T17:01:36;18.40;35.80
56137;DHT22;42008;52.934;5.884;2022-09-09T17:04:10;17.80;38.50
56137;DHT22;42008;52.934;5.884;2022-09-09T17:06:36;18.00;45.30
56137;DHT22;42008;52.934;5.884;2022-09-09T17:09:08;18.30;43.20
56137;DHT22;42008;52.934;5.884;2022-09-09T17:11:34;19.10;36.20
56137;DHT22;42008;52.934;5.884;2022-09-09T17:14:00;18.00;39.60
56137;DHT22;42008;52.934;5.884;2022-09-09T17:16:28;18.30;37.00
56137;DHT22;42008;52.934;5.884;2022-09-09T17:18:55;18.00;39.20
56137;DHT22;42008;52.934;5.884;2022-09-09T17:21:24;18.90;42.30
56137;DHT22;42008;52.934;5.884;2022-09-09T17:23:50;17.70;44.40
56137;DHT22;42008;52.934;5.884;2022-09-09T17:26:18;17.60;47.70
56137;DHT22;42008;52.934;5.884;2022-09-09T17:28:45;18.30;49.90
56137;DHT22;42008;52.934;5.884;2022-09-09T17:31:15;18.10;52.10
56137;DHT22;42008;52.934;5.884;2022-09-09T17:33:44;17.90;55.20
56137;DHT22;42008;52.934;5.884;2022-09-09T17:36:17;18.00;57.80
56137;DHT22;42008;52.934;5.884;2022-09-09T17:38:43;17.80;60.50